Time,TemperatureF,DewpointF,PressureIn,WindDirection,WindDirectionDegrees,WindSpeedMPH,WindSpeedGustMPH,Humidity,HourlyPrecipIn,Conditions,Clouds,dailyrainin,SoftwareType,DateUTC
2013-04-08 00:03:00,53.0,44.0,30.14,East,82,1.0,2.0,71,0.00,,,0.00,,2013-04-08 04:03:00,
2013-04-08 00:13:00,53.0,44.0,30.14,East,82,1.0,2.0,71,0.00,,,0.00,,2013-04-08 04:13:00,
2013-04-08 00:23:00,52.0,43.0,30.14,East,82,0.0,1.0,72,0.00,,,0.00,,2013-04-08 04:23:00,
2013-04-08 00:33:00,51.0,43.0,30.14,East,82,0.0,0.0,74,0.00,,,0.00,,2013-04-08 04:33:00,
2013-04-08 00:44:00,51.0,43.0,30.14,East,82,0.0,0.0,74,0.00,,,0.00,,2013-04-08 04:44:00,
2013-04-08 00:52:00,50.0,43.0,30.14,East,85,0.0,0.0,76,0.00,,,0.00,,2013-04-08 04:52:00,
2013-04-08 01:02:00,49.0,42.0,30.14,East,85,0.0,0.0,78,0.00,,,0.00,,2013-04-08 05:02:00,
2013-04-08 01:12:00,49.0,42.0,30.14,East,85,0.0,0.0,78,0.00,,,0.00,,2013-04-08 05:12:00,
2013-04-08 01:22:00,49.0,42.0,30.14,East,85,0.0,0.0,78,0.00,,,0.00,,2013-04-08 05:22:00,
2013-04-08 01:32:00,48.0,42.0,30.14,East,85,0.0,0.0,81,0.00,,,0.00,,2013-04-08 05:32:00,
2013-04-08 01:42:00,48.0,43.0,30.14,East,85,0.0,0.0,82,0.00,,,0.00,,2013-04-08 05:42:00,
2013-04-08 01:53:00,48.0,43.0,30.14,East,85,0.0,0.0,82,0.00,,,0.00,,2013-04-08 05:53:00,
2013-04-08 02:02:00,47.0,42.0,30.14,East,85,0.0,0.0,83,0.00,,,0.00,,2013-04-08 06:02:00,
2013-04-08 02:12:00,47.0,42.0,30.14,East,85,0.0,0.0,83,0.00,,,0.00,,2013-04-08 06:12:00,
2013-04-08 02:22:00,47.0,42.0,30.14,East,85,0.0,0.0,83,0.00,,,0.00,,2013-04-08 06:22:00,
2013-04-08 02:32:00,46.0,41.0,30.14,East,85,0.0,0.0,84,0.00,,,0.00,,2013-04-08 06:32:00,
2013-04-08 02:43:00,46.0,41.0,30.14,East,85,0.0,0.0,84,0.00,,,0.00,,2013-04-08 06:43:00,
2013-04-08 02:52:00,46.0,42.0,30.13,East,85,0.0,0.0,85,0.00,,,0.00,,2013-04-08 06:52:00,
2013-04-08 03:02:00,46.0,42.0,30.13,East,85,0.0,0.0,85,0.00,,,0.00,,2013-04-08 07:02:00,
2013-04-08 03:12:00,46.0,42.0,30.13,East,85,0.0,0.0,85,0.00,,,0.00,,2013-04-08 07:12:00,
2013-04-08 03:22:00,46.0,42.0,30.13,East,85,0.0,0.0,85,0.00,,,0.00,,2013-04-08 07:22:00,
2013-04-08 03:33:00,46.0,42.0,30.13,East,85,0.0,0.0,85,0.00,,,0.00,,2013-04-08 07:33:00,
2013-04-08 03:42:00,46.0,42.0,30.13,East,85,0.0,0.0,85,0.00,,,0.00,,2013-04-08 07:42:00,
2013-04-08 03:52:00,45.0,41.0,30.13,East,85,0.0,0.0,86,0.00,,,0.00,,2013-04-08 07:52:00,
2013-04-08 04:02:00,45.0,42.0,30.13,East,85,0.0,0.0,88,0.00,,,0.00,,2013-04-08 08:02:00,
2013-04-08 04:12:00,45.0,42.0,30.13,East,85,0.0,0.0,88,0.00,,,0.00,,2013-04-08 08:12:00,
2013-04-08 04:22:00,45.0,42.0,30.13,East,85,0.0,0.0,88,0.00,,,0.00,,2013-04-08 08:22:00,
2013-04-08 04:33:00,44.0,41.0,30.13,East,85,0.0,0.0,88,0.00,,,0.00,,2013-04-08 08:33:00,
2013-04-08 04:42:00,44.0,41.0,30.13,SE,130,0.0,1.0,89,0.00,,,0.00,,2013-04-08 08:42:00,
2013-04-08 04:52:00,44.0,41.0,30.13,SE,130,0.0,1.0,89,0.00,,,0.00,,2013-04-08 08:52:00,
2013-04-08 05:02:00,44.0,41.0,30.13,SE,130,0.0,0.0,89,0.00,,,0.00,,2013-04-08 09:02:00,
2013-04-08 05:12:00,44.0,41.0,30.14,East,88,0.0,2.0,89,0.00,,,0.00,,2013-04-08 09:12:00,
2013-04-08 05:23:00,44.0,41.0,30.14,East,88,0.0,2.0,89,0.00,,,0.00,,2013-04-08 09:23:00,
2013-04-08 05:33:00,43.0,40.0,30.14,East,88,0.0,2.0,90,0.00,,,0.00,,2013-04-08 09:33:00,
2013-04-08 05:43:00,43.0,40.0,30.14,East,88,0.0,2.0,90,0.00,,,0.00,,2013-04-08 09:43:00,
2013-04-08 05:53:00,43.0,41.0,30.14,East,88,0.0,2.0,91,0.00,,,0.00,,2013-04-08 09:53:00,
2013-04-08 06:03:00,44.0,41.0,30.14,East,88,0.0,0.0,90,0.00,,,0.00,,2013-04-08 10:03:00,
2013-04-08 06:13:00,44.0,41.0,30.14,East,88,0.0,0.0,90,0.00,,,0.00,,2013-04-08 10:13:00,
2013-04-08 06:23:00,44.0,41.0,30.15,East,88,0.0,0.0,89,0.00,,,0.00,,2013-04-08 10:23:00,
2013-04-08 06:33:00,43.0,40.0,30.15,East,88,0.0,2.0,89,0.00,,,0.00,,2013-04-08 10:33:00,
2013-04-08 06:42:00,43.0,40.0,30.15,East,88,0.0,2.0,89,0.00,,,0.00,,2013-04-08 10:42:00,
2013-04-08 06:53:00,43.0,40.0,30.15,East,88,0.0,1.0,90,0.00,,,0.00,,2013-04-08 10:53:00,
2013-04-08 07:02:00,43.0,40.0,30.16,East,88,0.0,0.0,90,0.00,,,0.00,,2013-04-08 11:02:00,
2013-04-08 07:12:00,43.0,41.0,30.16,East,88,0.0,0.0,91,0.00,,,0.00,,2013-04-08 11:12:00,
2013-04-08 07:23:00,43.0,41.0,30.16,East,88,0.0,0.0,91,0.00,,,0.00,,2013-04-08 11:23:00,
2013-04-08 07:32:00,42.0,40.0,30.17,East,88,0.0,0.0,91,0.00,,,0.00,,2013-04-08 11:32:00,
2013-04-08 07:42:00,42.0,40.0,30.17,East,88,0.0,0.0,91,0.00,,,0.00,,2013-04-08 11:42:00,
2013-04-08 07:53:00,42.0,40.0,30.17,East,88,0.0,0.0,91,0.00,,,0.00,,2013-04-08 11:53:00,
2013-04-08 08:12:00,43.0,41.0,30.18,East,88,0.0,0.0,92,0.00,,,0.00,,2013-04-08 12:12:00,
2013-04-08 08:23:00,45.0,43.0,30.19,East,88,0.0,0.0,92,0.00,,,0.00,,2013-04-08 12:23:00,
2013-04-08 08:33:00,46.0,44.0,30.19,East,88,0.0,0.0,91,0.00,,,0.00,,2013-04-08 12:33:00,
2013-04-08 08:42:00,46.0,44.0,30.19,East,88,0.0,0.0,91,0.00,,,0.00,,2013-04-08 12:42:00,
2013-04-08 08:53:00,47.0,44.0,30.19,East,88,0.0,0.0,89,0.00,,,0.00,,2013-04-08 12:53:00,
2013-04-08 09:03:00,49.0,46.0,30.19,East,88,0.0,0.0,88,0.00,,,0.00,,2013-04-08 13:03:00,
2013-04-08 09:12:00,49.0,46.0,30.19,East,88,0.0,0.0,88,0.00,,,0.00,,2013-04-08 13:12:00,
2013-04-08 09:22:00,51.0,46.0,30.19,WSW,238,0.0,0.0,84,0.00,,,0.00,,2013-04-08 13:22:00,
2013-04-08 09:32:00,53.0,46.0,30.19,SW,233,0.0,0.0,78,0.00,,,0.00,,2013-04-08 13:32:00,
2013-04-08 09:43:00,53.0,46.0,30.19,SW,233,0.0,0.0,78,0.00,,,0.00,,2013-04-08 13:43:00,
2013-04-08 09:52:00,54.0,46.0,30.19,SW,233,0.0,0.0,74,0.00,,,0.00,,2013-04-08 13:52:00,
2013-04-08 10:03:00,56.0,46.0,30.19,SSW,206,0.0,0.0,70,0.00,,,0.00,,2013-04-08 14:03:00,
2013-04-08 10:12:00,58.0,48.0,30.18,WSW,254,1.0,4.0,70,0.00,,,0.00,,2013-04-08 14:12:00,
2013-04-08 10:22:00,58.0,48.0,30.18,WSW,254,1.0,4.0,70,0.00,,,0.00,,2013-04-08 14:22:00,
2013-04-08 10:32:00,58.0,47.0,30.18,SW,225,1.0,3.0,68,0.00,,,0.00,,2013-04-08 14:32:00,
2013-04-08 10:42:00,58.0,47.0,30.18,SW,225,1.0,3.0,68,0.00,,,0.00,,2013-04-08 14:42:00,
2013-04-08 10:52:00,58.0,47.0,30.18,SW,225,1.0,3.0,68,0.00,,,0.00,,2013-04-08 14:52:00,
2013-04-08 11:02:00,58.0,47.0,30.18,SW,225,1.0,3.0,68,0.00,,,0.00,,2013-04-08 15:02:00,
2013-04-08 11:12:00,64.0,51.0,30.18,SW,231,5.0,7.0,62,0.00,,,0.00,,2013-04-08 15:12:00,
2013-04-08 11:22:00,64.0,51.0,30.18,SW,231,5.0,7.0,62,0.00,,,0.00,,2013-04-08 15:22:00,
2013-04-08 11:35:00,65.0,50.0,30.18,WNW,289,5.0,9.0,58,0.00,,,0.00,,2013-04-08 15:35:00,
2013-04-08 11:43:00,65.0,50.0,30.18,WNW,289,5.0,9.0,58,0.00,,,0.00,,2013-04-08 15:43:00,
2013-04-08 11:53:00,67.0,51.0,30.17,SW,219,5.0,13.0,57,0.00,,,0.00,,2013-04-08 15:53:00,
2013-04-08 12:03:00,68.0,52.0,30.16,SW,223,7.0,15.0,56,0.00,,,0.00,,2013-04-08 16:03:00,
2013-04-08 12:13:00,68.0,51.0,30.16,SW,229,7.0,11.0,54,0.00,,,0.00,,2013-04-08 16:13:00,
2013-04-08 12:23:00,68.0,51.0,30.16,SW,229,7.0,11.0,54,0.00,,,0.00,,2013-04-08 16:23:00,
2013-04-08 12:32:00,68.0,51.0,30.16,SW,229,7.0,11.0,54,0.00,,,0.00,,2013-04-08 16:32:00,
2013-04-08 12:42:00,69.0,51.0,30.16,SSW,204,6.0,10.0,53,0.00,,,0.00,,2013-04-08 16:42:00,
2013-04-08 12:53:00,70.0,53.0,30.15,SSW,209,3.0,9.0,55,0.00,,,0.00,,2013-04-08 16:53:00,
2013-04-08 13:03:00,71.0,54.0,30.14,WNW,285,5.0,10.0,54,0.00,,,0.00,,2013-04-08 17:03:00,
2013-04-08 13:12:00,72.0,52.0,30.14,West,274,5.0,10.0,49,0.00,,,0.00,,2013-04-08 17:12:00,
2013-04-08 13:23:00,72.0,52.0,30.14,West,274,5.0,10.0,49,0.00,,,0.00,,2013-04-08 17:23:00,
2013-04-08 13:32:00,72.0,52.0,30.13,WSW,257,4.0,9.0,50,0.00,,,0.00,,2013-04-08 17:32:00,
2013-04-08 13:43:00,72.0,52.0,30.13,WSW,257,4.0,9.0,50,0.00,,,0.00,,2013-04-08 17:43:00,
2013-04-08 13:53:00,71.0,52.0,30.12,WSW,258,4.0,8.0,51,0.00,,,0.00,,2013-04-08 17:53:00,
2013-04-08 14:02:00,72.0,52.0,30.12,WSW,246,2.0,8.0,49,0.00,,,0.00,,2013-04-08 18:02:00,
2013-04-08 14:12:00,73.0,54.0,30.11,SSE,165,3.0,11.0,51,0.00,,,0.00,,2013-04-08 18:12:00,
2013-04-08 14:23:00,73.0,54.0,30.11,SSE,165,3.0,11.0,51,0.00,,,0.00,,2013-04-08 18:23:00,
2013-04-08 14:32:00,73.0,54.0,30.11,SW,226,6.0,13.0,51,0.00,,,0.00,,2013-04-08 18:32:00,
2013-04-08 14:42:00,73.0,52.0,30.10,WSW,238,7.0,13.0,47,0.00,,,0.00,,2013-04-08 18:42:00,
2013-04-08 14:52:00,73.0,52.0,30.10,WSW,238,7.0,13.0,47,0.00,,,0.00,,2013-04-08 18:52:00,
2013-04-08 15:02:00,74.0,51.0,30.09,WSW,240,8.0,17.0,45,0.00,,,0.00,,2013-04-08 19:02:00,
2013-04-08 15:12:00,75.0,52.0,30.09,SW,220,8.0,19.0,45,0.00,,,0.00,,2013-04-08 19:12:00,
2013-04-08 15:23:00,75.0,52.0,30.09,SW,220,8.0,19.0,45,0.00,,,0.00,,2013-04-08 19:23:00,
2013-04-08 15:33:00,74.0,52.0,30.09,SSW,196,7.0,17.0,47,0.00,,,0.00,,2013-04-08 19:33:00,
2013-04-08 15:42:00,74.0,53.0,30.08,SW,223,8.0,16.0,48,0.00,,,0.00,,2013-04-08 19:42:00,
2013-04-08 15:52:00,74.0,53.0,30.08,SW,223,8.0,16.0,48,0.00,,,0.00,,2013-04-08 19:52:00,
2013-04-08 16:02:00,75.0,52.0,30.07,South,169,9.0,14.0,45,0.00,,,0.00,,2013-04-08 20:02:00,
2013-04-08 16:12:00,75.0,52.0,30.07,West,267,9.0,14.0,45,0.00,,,0.00,,2013-04-08 20:12:00,
2013-04-08 16:23:00,75.0,52.0,30.07,West,267,9.0,14.0,45,0.00,,,0.00,,2013-04-08 20:23:00,
2013-04-08 16:33:00,76.0,53.0,30.06,SSW,205,7.0,20.0,45,0.00,,,0.00,,2013-04-08 20:33:00,
2013-04-08 16:43:00,76.0,53.0,30.06,SSW,205,7.0,20.0,45,0.00,,,0.00,,2013-04-08 20:43:00,
2013-04-08 16:52:00,75.0,52.0,30.06,South,176,12.0,20.0,44,0.00,,,0.00,,2013-04-08 20:52:00,
2013-04-08 17:02:00,75.0,52.0,30.06,SSW,202,9.0,20.0,45,0.00,,,0.00,,2013-04-08 21:02:00,
2013-04-08 17:12:00,75.0,52.0,30.06,SW,217,9.0,17.0,44,0.00,,,0.00,,2013-04-08 21:12:00,
2013-04-08 17:22:00,75.0,52.0,30.06,SW,217,9.0,17.0,44,0.00,,,0.00,,2013-04-08 21:22:00,
2013-04-08 17:33:00,75.0,51.0,30.06,SSW,207,11.0,19.0,43,0.00,,,0.00,,2013-04-08 21:33:00,
2013-04-08 17:43:00,75.0,51.0,30.06,SSW,207,11.0,19.0,43,0.00,,,0.00,,2013-04-08 21:43:00,
2013-04-08 17:53:00,75.0,52.0,30.06,WSW,257,6.0,15.0,44,0.00,,,0.00,,2013-04-08 21:53:00,
2013-04-08 18:03:00,75.0,50.0,30.06,WSW,238,8.0,15.0,42,0.00,,,0.00,,2013-04-08 22:03:00,
2013-04-08 18:13:00,75.0,50.0,30.06,WSW,238,8.0,15.0,42,0.00,,,0.00,,2013-04-08 22:13:00,
2013-04-08 18:23:00,75.0,50.0,30.06,SSW,207,9.0,14.0,41,0.00,,,0.00,,2013-04-08 22:23:00,
2013-04-08 18:32:00,75.0,50.0,30.06,SSW,207,9.0,14.0,41,0.00,,,0.00,,2013-04-08 22:32:00,
2013-04-08 18:43:00,74.0,50.0,30.06,SSW,212,8.0,18.0,43,0.00,,,0.00,,2013-04-08 22:43:00,
2013-04-08 18:53:00,74.0,49.0,30.07,WSW,242,8.0,12.0,42,0.00,,,0.00,,2013-04-08 22:53:00,
2013-04-08 19:02:00,74.0,50.0,30.07,SW,234,7.0,14.0,43,0.00,,,0.00,,2013-04-08 23:02:00,
2013-04-08 19:12:00,74.0,50.0,30.07,SW,234,7.0,14.0,43,0.00,,,0.00,,2013-04-08 23:12:00,
2013-04-08 19:22:00,74.0,50.0,30.07,SW,234,7.0,14.0,43,0.00,,,0.00,,2013-04-08 23:22:00,
2013-04-08 19:32:00,73.0,50.0,30.07,South,188,8.0,13.0,45,0.00,,,0.00,,2013-04-08 23:32:00,
2013-04-08 19:43:00,73.0,50.0,30.07,South,188,8.0,13.0,45,0.00,,,0.00,,2013-04-08 23:43:00,
2013-04-08 19:52:00,72.0,49.0,30.07,WSW,238,7.0,11.0,45,0.00,,,0.00,,2013-04-08 23:52:00,
2013-04-08 20:02:00,71.0,50.0,30.08,SW,231,4.0,10.0,47,0.00,,,0.00,,2013-04-09 00:02:00,
2013-04-08 20:12:00,71.0,50.0,30.08,SW,231,4.0,10.0,47,0.00,,,0.00,,2013-04-09 00:12:00,
2013-04-08 20:22:00,70.0,50.0,30.08,SSW,208,5.0,9.0,49,0.00,,,0.00,,2013-04-09 00:22:00,
2013-04-08 20:32:00,70.0,50.0,30.09,SSW,207,3.0,8.0,50,0.00,,,0.00,,2013-04-09 00:32:00,
2013-04-08 20:42:00,70.0,50.0,30.09,SSW,207,3.0,8.0,50,0.00,,,0.00,,2013-04-09 00:42:00,
2013-04-08 20:52:00,69.0,50.0,30.09,SSW,202,5.0,7.0,51,0.00,,,0.00,,2013-04-09 00:52:00,
2013-04-08 21:02:00,69.0,51.0,30.09,SW,223,4.0,7.0,52,0.00,,,0.00,,2013-04-09 01:02:00,
2013-04-08 21:12:00,69.0,51.0,30.10,SSW,211,3.0,8.0,52,0.00,,,0.00,,2013-04-09 01:12:00,
2013-04-08 21:22:00,69.0,51.0,30.10,SSW,211,3.0,8.0,52,0.00,,,0.00,,2013-04-09 01:22:00,
2013-04-08 21:42:00,68.0,51.0,30.10,SW,214,3.0,6.0,54,0.00,,,0.00,,2013-04-09 01:42:00,
2013-04-08 21:52:00,68.0,51.0,30.10,SW,214,3.0,6.0,54,0.00,,,0.00,,2013-04-09 01:52:00,
2013-04-08 22:02:00,67.0,50.0,30.10,SSW,208,4.0,8.0,55,0.00,,,0.00,,2013-04-09 02:02:00,
2013-04-08 22:13:00,67.0,50.0,30.10,SSW,208,4.0,8.0,55,0.00,,,0.00,,2013-04-09 02:13:00,
2013-04-08 22:22:00,67.0,51.0,30.10,SSW,206,3.0,7.0,56,0.00,,,0.00,,2013-04-09 02:22:00,
2013-04-08 22:33:00,66.0,50.0,30.10,SSW,207,5.0,8.0,57,0.00,,,0.00,,2013-04-09 02:33:00,
2013-04-08 22:43:00,66.0,50.0,30.10,South,190,5.0,7.0,57,0.00,,,0.00,,2013-04-09 02:43:00,
2013-04-08 22:52:00,66.0,50.0,30.10,South,190,5.0,7.0,57,0.00,,,0.00,,2013-04-09 02:52:00,
2013-04-08 23:02:00,65.0,50.0,30.11,SSW,211,3.0,7.0,59,0.00,,,0.00,,2013-04-09 03:02:00,
2013-04-08 23:12:00,65.0,50.0,30.11,SSW,211,3.0,7.0,59,0.00,,,0.00,,2013-04-09 03:12:00,
2013-04-08 23:22:00,65.0,50.0,30.11,South,185,2.0,5.0,59,0.00,,,0.00,,2013-04-09 03:22:00,
2013-04-08 23:33:00,65.0,51.0,30.11,SW,234,2.0,7.0,60,0.00,,,0.00,,2013-04-09 03:33:00,
2013-04-08 23:43:00,65.0,51.0,30.11,SW,234,2.0,7.0,60,0.00,,,0.00,,2013-04-09 03:43:00,
2013-04-08 23:53:00,64.0,50.0,30.11,WSW,237,2.0,4.0,61,0.00,,,0.00,,2013-04-09 03:53:00,